Terminal Aerodrome Forecast
Issued by NWS

Home | Current Version | Previous Version | Text Only | Print | Product List | Glossary On
Versions: 1 2 3 4 5 6 7 8 9 10 11 12 13 14 15
000
FTUS46 KMTR 061130
TAFSNS
TAF
KSNS 061130Z 0612/0712 29005KT P6SM OVC009
     FM061800 29008KT P6SM SCT012
     FM062000 29012KT P6SM SCT250
     FM070200 27009KT P6SM BKN010
     FM070600 27006KT P6SM OVC008=

USA.gov is the U.S. government's official web portal to all federal, state and local government web resources and services.